sensor_id;sensor_type;location;lat;lon;timestamp;P1;durP1;ratioP1;P2;durP2;ratioP2
68938;SDS011;59064;45.294;11.816;2023-08-30T00:00:44;3.20;;;0.80;;
68938;SDS011;59064;45.294;11.816;2023-08-30T00:03:10;3.10;;;0.80;;
68938;SDS011;59064;45.294;11.816;2023-08-30T00:05:40;1.70;;;0.50;;
68938;SDS011;59064;45.294;11.816;2023-08-30T00:08:07;2.80;;;0.50;;
68938;SDS011;59064;45.294;11.816;2023-08-30T00:10:33;1.60;;;0.50;;
68938;SDS011;59064;45.294;11.816;2023-08-30T00:12:58;1.90;;;0.60;;
68938;SDS011;59064;45.294;11.816;2023-08-30T00:15:24;2.00;;;0.60;;
68938;SDS011;59064;45.294;11.816;2023-08-30T00:17:50;1.50;;;0.50;;
68938;SDS011;59064;45.294;11.816;2023-08-30T00:20:19;2.80;;;0.70;;
68938;SDS011;59064;45.294;11.816;2023-08-30T00:22:45;2.50;;;0.50;;
68938;SDS011;59064;45.294;11.816;2023-08-30T00:25:11;1.80;;;0.50;;
68938;SDS011;59064;45.294;11.816;2023-08-30T00:27:37;2.60;;;0.50;;
68938;SDS011;59064;45.294;11.816;2023-08-30T00:30:03;1.50;;;0.50;;
68938;SDS011;59064;45.294;11.816;2023-08-30T00:32:29;1.90;;;0.60;;
68938;SDS011;59064;45.294;11.816;2023-08-30T00:34:55;1.80;;;0.50;;
68938;SDS011;59064;45.294;11.816;2023-08-30T00:37:20;2.70;;;0.70;;
68938;SDS011;59064;45.294;11.816;2023-08-30T00:39:46;1.80;;;0.50;;
68938;SDS011;59064;45.294;11.816;2023-08-30T00:42:11;3.20;;;0.60;;
68938;SDS011;59064;45.294;11.816;2023-08-30T00:44:37;1.50;;;0.50;;
68938;SDS011;59064;45.294;11.816;2023-08-30T00:47:02;3.00;;;0.40;;
68938;SDS011;59064;45.294;11.816;2023-08-30T00:49:31;2.40;;;0.50;;
68938;SDS011;59064;45.294;11.816;2023-08-30T00:52:02;1.20;;;0.50;;
68938;SDS011;59064;45.294;11.816;2023-08-30T00:54:30;1.60;;;0.40;;
68938;SDS011;59064;45.294;11.816;2023-08-30T00:56:56;2.20;;;0.70;;
68938;SDS011;59064;45.294;11.816;2023-08-30T00:59:22;2.70;;;0.60;;
68938;SDS011;59064;45.294;11.816;2023-08-30T01:01:49;1.40;;;0.30;;
68938;SDS011;59064;45.294;11.816;2023-08-30T01:04:14;1.90;;;0.60;;
68938;SDS011;59064;45.294;11.816;2023-08-30T01:06:41;2.40;;;0.50;;
68938;SDS011;59064;45.294;11.816;2023-08-30T01:09:07;1.50;;;0.50;;
68938;SDS011;59064;45.294;11.816;2023-08-30T01:11:39;2.70;;;0.50;;
68938;SDS011;59064;45.294;11.816;2023-08-30T01:14:21;1.40;;;0.50;;
68938;SDS011;59064;45.294;11.816;2023-08-30T01:16:51;2.80;;;0.40;;
68938;SDS011;59064;45.294;11.816;2023-08-30T01:19:39;3.20;;;0.60;;
68938;SDS011;59064;45.294;11.816;2023-08-30T01:27:34;2.30;;;0.50;;
68938;SDS011;59064;45.294;11.816;2023-08-30T01:30:03;3.60;;;0.60;;
68938;SDS011;59064;45.294;11.816;2023-08-30T01:32:32;1.40;;;0.50;;
68938;SDS011;59064;45.294;11.816;2023-08-30T01:34:59;2.40;;;0.50;;
68938;SDS011;59064;45.294;11.816;2023-08-30T01:37:26;2.00;;;0.40;;
68938;SDS011;59064;45.294;11.816;2023-08-30T01:39:53;1.60;;;0.50;;
68938;SDS011;59064;45.294;11.816;2023-08-30T01:42:22;1.30;;;0.60;;
68938;SDS011;59064;45.294;11.816;2023-08-30T01:44:53;3.30;;;1.00;;
68938;SDS011;59064;45.294;11.816;2023-08-30T01:47:24;1.90;;;0.40;;
68938;SDS011;59064;45.294;11.816;2023-08-30T01:49:55;2.10;;;0.50;;
68938;SDS011;59064;45.294;11.816;2023-08-30T01:52:23;2.00;;;0.50;;
68938;SDS011;59064;45.294;11.816;2023-08-30T01:54:51;1.40;;;0.40;;
68938;SDS011;59064;45.294;11.816;2023-08-30T01:57:18;2.20;;;0.60;;
68938;SDS011;59064;45.294;11.816;2023-08-30T01:59:44;1.50;;;0.40;;
68938;SDS011;59064;45.294;11.816;2023-08-30T02:02:09;3.70;;;0.60;;
68938;SDS011;59064;45.294;11.816;2023-08-30T02:04:35;1.70;;;0.50;;
68938;SDS011;59064;45.294;11.816;2023-08-30T02:07:03;1.20;;;0.40;;
68938;SDS011;59064;45.294;11.816;2023-08-30T02:12:04;1.80;;;0.30;;
68938;SDS011;59064;45.294;11.816;2023-08-30T02:14:35;1.80;;;0.50;;
68938;SDS011;59064;45.294;11.816;2023-08-30T02:17:03;2.20;;;0.60;;
68938;SDS011;59064;45.294;11.816;2023-08-30T02:19:31;1.70;;;0.70;;
68938;SDS011;59064;45.294;11.816;2023-08-30T02:21:57;2.30;;;0.40;;
68938;SDS011;59064;45.294;11.816;2023-08-30T02:24:24;2.40;;;0.50;;
68938;SDS011;59064;45.294;11.816;2023-08-30T02:26:49;2.10;;;0.60;;
68938;SDS011;59064;45.294;11.816;2023-08-30T02:29:15;3.50;;;0.60;;
68938;SDS011;59064;45.294;11.816;2023-08-30T02:31:40;2.00;;;0.60;;
68938;SDS011;59064;45.294;11.816;2023-08-30T02:34:06;3.50;;;0.70;;
68938;SDS011;59064;45.294;11.816;2023-08-30T02:36:31;3.90;;;0.90;;
68938;SDS011;59064;45.294;11.816;2023-08-30T02:38:57;3.70;;;0.60;;
68938;SDS011;59064;45.294;11.816;2023-08-30T02:41:22;5.60;;;0.70;;
68938;SDS011;59064;45.294;11.816;2023-08-30T02:43:48;1.10;;;0.40;;
68938;SDS011;59064;45.294;11.816;2023-08-30T02:46:14;2.30;;;0.40;;
68938;SDS011;59064;45.294;11.816;2023-08-30T02:48:39;2.40;;;0.50;;
68938;SDS011;59064;45.294;11.816;2023-08-30T02:51:05;3.10;;;0.50;;
68938;SDS011;59064;45.294;11.816;2023-08-30T02:53:31;2.30;;;0.60;;
68938;SDS011;59064;45.294;11.816;2023-08-30T02:55:56;2.40;;;0.70;;
68938;SDS011;59064;45.294;11.816;2023-08-30T02:58:23;1.70;;;0.70;;
68938;SDS011;59064;45.294;11.816;2023-08-30T03:00:48;3.40;;;0.60;;
68938;SDS011;59064;45.294;11.816;2023-08-30T03:03:14;3.00;;;0.70;;
68938;SDS011;59064;45.294;11.816;2023-08-30T03:05:40;4.20;;;0.80;;
68938;SDS011;59064;45.294;11.816;2023-08-30T03:08:05;2.70;;;0.60;;
68938;SDS011;59064;45.294;11.816;2023-08-30T03:10:31;1.90;;;0.60;;
68938;SDS011;59064;45.294;11.816;2023-08-30T03:12:57;4.00;;;0.70;;
68938;SDS011;59064;45.294;11.816;2023-08-30T03:15:23;2.70;;;1.00;;
68938;SDS011;59064;45.294;11.816;2023-08-30T03:17:48;3.90;;;0.80;;
68938;SDS011;59064;45.294;11.816;2023-08-30T03:20:14;3.20;;;0.70;;
68938;SDS011;59064;45.294;11.816;2023-08-30T03:22:40;3.80;;;0.80;;
68938;SDS011;59064;45.294;11.816;2023-08-30T03:25:06;1.90;;;0.70;;
68938;SDS011;59064;45.294;11.816;2023-08-30T03:27:34;4.70;;;0.70;;
68938;SDS011;59064;45.294;11.816;2023-08-30T03:30:02;3.00;;;0.90;;
68938;SDS011;59064;45.294;11.816;2023-08-30T03:32:29;2.90;;;0.60;;
68938;SDS011;59064;45.294;11.816;2023-08-30T03:34:56;2.20;;;0.70;;
68938;SDS011;59064;45.294;11.816;2023-08-30T03:37:22;3.30;;;0.60;;
68938;SDS011;59064;45.294;11.816;2023-08-30T03:39:47;2.30;;;0.60;;
68938;SDS011;59064;45.294;11.816;2023-08-30T03:42:13;2.50;;;0.80;;
68938;SDS011;59064;45.294;11.816;2023-08-30T03:44:38;1.70;;;0.60;;
68938;SDS011;59064;45.294;11.816;2023-08-30T03:47:04;1.70;;;0.70;;
68938;SDS011;59064;45.294;11.816;2023-08-30T03:49:30;2.00;;;0.70;;
68938;SDS011;59064;45.294;11.816;2023-08-30T03:51:56;2.30;;;0.60;;
68938;SDS011;59064;45.294;11.816;2023-08-30T03:54:21;2.60;;;0.50;;
68938;SDS011;59064;45.294;11.816;2023-08-30T03:56:47;3.00;;;0.70;;
68938;SDS011;59064;45.294;11.816;2023-08-30T03:59:12;2.90;;;0.90;;
68938;SDS011;59064;45.294;11.816;2023-08-30T04:01:38;3.30;;;0.70;;
68938;SDS011;59064;45.294;11.816;2023-08-30T04:04:04;2.20;;;0.80;;
68938;SDS011;59064;45.294;11.816;2023-08-30T04:06:33;2.10;;;0.80;;
68938;SDS011;59064;45.294;11.816;2023-08-30T04:08:59;3.10;;;0.80;;
68938;SDS011;59064;45.294;11.816;2023-08-30T04:11:24;2.40;;;0.80;;
68938;SDS011;59064;45.294;11.816;2023-08-30T04:13:50;2.40;;;0.80;;
68938;SDS011;59064;45.294;11.816;2023-08-30T04:16:17;3.10;;;0.90;;
68938;SDS011;59064;45.294;11.816;2023-08-30T04:18:43;2.30;;;0.90;;
68938;SDS011;59064;45.294;11.816;2023-08-30T04:21:08;2.80;;;0.80;;
68938;SDS011;59064;45.294;11.816;2023-08-30T04:23:34;2.40;;;0.80;;
68938;SDS011;59064;45.294;11.816;2023-08-30T04:26:00;2.00;;;0.80;;
68938;SDS011;59064;45.294;11.816;2023-08-30T04:28:26;2.50;;;0.80;;
68938;SDS011;59064;45.294;11.816;2023-08-30T04:30:55;2.40;;;0.80;;
68938;SDS011;59064;45.294;11.816;2023-08-30T04:33:23;4.80;;;1.00;;
68938;SDS011;59064;45.294;11.816;2023-08-30T04:35:55;3.60;;;1.10;;
68938;SDS011;59064;45.294;11.816;2023-08-30T04:38:21;2.40;;;0.80;;
68938;SDS011;59064;45.294;11.816;2023-08-30T04:40:47;3.50;;;1.00;;
68938;SDS011;59064;45.294;11.816;2023-08-30T04:43:14;2.40;;;0.80;;
68938;SDS011;59064;45.294;11.816;2023-08-30T04:45:40;3.30;;;0.80;;
68938;SDS011;59064;45.294;11.816;2023-08-30T04:48:06;2.40;;;0.80;;
68938;SDS011;59064;45.294;11.816;2023-08-30T04:50:31;2.40;;;0.80;;
68938;SDS011;59064;45.294;11.816;2023-08-30T04:52:57;2.50;;;0.60;;
68938;SDS011;59064;45.294;11.816;2023-08-30T04:55:28;1.90;;;0.70;;
68938;SDS011;59064;45.294;11.816;2023-08-30T04:57:55;3.00;;;0.70;;
68938;SDS011;59064;45.294;11.816;2023-08-30T05:00:20;1.90;;;0.80;;
68938;SDS011;59064;45.294;11.816;2023-08-30T05:02:46;2.60;;;0.70;;
68938;SDS011;59064;45.294;11.816;2023-08-30T05:05:12;1.90;;;0.60;;
68938;SDS011;59064;45.294;11.816;2023-08-30T05:07:39;2.70;;;0.60;;
68938;SDS011;59064;45.294;11.816;2023-08-30T05:10:06;3.20;;;0.50;;
68938;SDS011;59064;45.294;11.816;2023-08-30T05:12:33;3.90;;;0.70;;
68938;SDS011;59064;45.294;11.816;2023-08-30T05:14:59;2.60;;;0.60;;
68938;SDS011;59064;45.294;11.816;2023-08-30T05:17:25;2.00;;;0.60;;
68938;SDS011;59064;45.294;11.816;2023-08-30T05:19:53;1.20;;;0.60;;
68938;SDS011;59064;45.294;11.816;2023-08-30T05:22:18;1.80;;;0.50;;
68938;SDS011;59064;45.294;11.816;2023-08-30T05:24:44;2.10;;;0.60;;
68938;SDS011;59064;45.294;11.816;2023-08-30T05:27:10;2.90;;;0.50;;
68938;SDS011;59064;45.294;11.816;2023-08-30T05:29:37;1.70;;;0.40;;
68938;SDS011;59064;45.294;11.816;2023-08-30T05:32:03;2.10;;;0.50;;
68938;SDS011;59064;45.294;11.816;2023-08-30T05:34:28;2.00;;;0.50;;
68938;SDS011;59064;45.294;11.816;2023-08-30T05:36:54;1.60;;;0.50;;
68938;SDS011;59064;45.294;11.816;2023-08-30T05:39:20;1.30;;;0.60;;
68938;SDS011;59064;45.294;11.816;2023-08-30T05:41:45;2.70;;;0.70;;
68938;SDS011;59064;45.294;11.816;2023-08-30T05:44:11;2.50;;;0.70;;
68938;SDS011;59064;45.294;11.816;2023-08-30T05:46:37;2.10;;;0.60;;
68938;SDS011;59064;45.294;11.816;2023-08-30T05:49:02;2.40;;;0.60;;
68938;SDS011;59064;45.294;11.816;2023-08-30T05:51:28;1.50;;;0.50;;
68938;SDS011;59064;45.294;11.816;2023-08-30T05:53:54;2.20;;;0.50;;
68938;SDS011;59064;45.294;11.816;2023-08-30T05:56:20;2.30;;;0.60;;
68938;SDS011;59064;45.294;11.816;2023-08-30T05:58:45;2.20;;;0.70;;
68938;SDS011;59064;45.294;11.816;2023-08-30T06:01:11;3.40;;;0.60;;
68938;SDS011;59064;45.294;11.816;2023-08-30T06:03:37;2.30;;;0.60;;
68938;SDS011;59064;45.294;11.816;2023-08-30T06:06:02;4.70;;;0.90;;
68938;SDS011;59064;45.294;11.816;2023-08-30T06:08:28;2.30;;;0.70;;
68938;SDS011;59064;45.294;11.816;2023-08-30T06:10:54;4.20;;;0.50;;
68938;SDS011;59064;45.294;11.816;2023-08-30T06:13:20;3.10;;;1.00;;
68938;SDS011;59064;45.294;11.816;2023-08-30T06:15:50;5.10;;;0.70;;
68938;SDS011;59064;45.294;11.816;2023-08-30T06:18:16;2.00;;;0.60;;
68938;SDS011;59064;45.294;11.816;2023-08-30T06:20:42;1.90;;;0.50;;
68938;SDS011;59064;45.294;11.816;2023-08-30T06:23:08;2.20;;;0.60;;
68938;SDS011;59064;45.294;11.816;2023-08-30T06:25:33;1.80;;;0.60;;
68938;SDS011;59064;45.294;11.816;2023-08-30T06:27:59;2.60;;;0.90;;
68938;SDS011;59064;45.294;11.816;2023-08-30T06:30:27;1.60;;;0.60;;
68938;SDS011;59064;45.294;11.816;2023-08-30T06:32:55;2.10;;;0.50;;
68938;SDS011;59064;45.294;11.816;2023-08-30T06:35:21;2.40;;;0.50;;
68938;SDS011;59064;45.294;11.816;2023-08-30T06:37:47;1.90;;;0.50;;
68938;SDS011;59064;45.294;11.816;2023-08-30T06:40:12;2.30;;;0.60;;
68938;SDS011;59064;45.294;11.816;2023-08-30T06:42:38;2.20;;;0.60;;
68938;SDS011;59064;45.294;11.816;2023-08-30T06:45:04;3.30;;;0.50;;
68938;SDS011;59064;45.294;11.816;2023-08-30T06:47:30;3.20;;;0.80;;
68938;SDS011;59064;45.294;11.816;2023-08-30T06:49:55;2.80;;;0.70;;
68938;SDS011;59064;45.294;11.816;2023-08-30T06:52:21;1.60;;;0.60;;
68938;SDS011;59064;45.294;11.816;2023-08-30T06:54:47;2.50;;;0.50;;
68938;SDS011;59064;45.294;11.816;2023-08-30T06:57:13;1.90;;;0.40;;
68938;SDS011;59064;45.294;11.816;2023-08-30T06:59:38;1.60;;;0.50;;
68938;SDS011;59064;45.294;11.816;2023-08-30T07:02:04;2.40;;;0.60;;
68938;SDS011;59064;45.294;11.816;2023-08-30T07:04:30;1.70;;;0.50;;
68938;SDS011;59064;45.294;11.816;2023-08-30T07:06:55;2.60;;;0.70;;
68938;SDS011;59064;45.294;11.816;2023-08-30T07:09:21;1.80;;;0.40;;
68938;SDS011;59064;45.294;11.816;2023-08-30T07:11:48;2.20;;;0.60;;
68938;SDS011;59064;45.294;11.816;2023-08-30T07:14:14;2.50;;;0.60;;
68938;SDS011;59064;45.294;11.816;2023-08-30T07:16:40;2.80;;;0.70;;
68938;SDS011;59064;45.294;11.816;2023-08-30T07:19:06;2.60;;;0.70;;
68938;SDS011;59064;45.294;11.816;2023-08-30T07:21:32;3.40;;;0.80;;
68938;SDS011;59064;45.294;11.816;2023-08-30T07:23:59;2.10;;;0.70;;
68938;SDS011;59064;45.294;11.816;2023-08-30T07:26:25;1.90;;;0.50;;
68938;SDS011;59064;45.294;11.816;2023-08-30T07:28:51;4.30;;;1.10;;
68938;SDS011;59064;45.294;11.816;2023-08-30T07:31:16;2.10;;;0.50;;
68938;SDS011;59064;45.294;11.816;2023-08-30T07:33:44;2.80;;;0.50;;
68938;SDS011;59064;45.294;11.816;2023-08-30T07:36:10;2.60;;;0.70;;
68938;SDS011;59064;45.294;11.816;2023-08-30T07:38:37;2.30;;;0.90;;
68938;SDS011;59064;45.294;11.816;2023-08-30T07:41:03;2.00;;;0.80;;
68938;SDS011;59064;45.294;11.816;2023-08-30T07:43:28;2.40;;;0.60;;
68938;SDS011;59064;45.294;11.816;2023-08-30T07:45:54;1.50;;;0.60;;
68938;SDS011;59064;45.294;11.816;2023-08-30T07:48:20;1.50;;;0.50;;
68938;SDS011;59064;45.294;11.816;2023-08-30T07:50:45;2.50;;;0.60;;
68938;SDS011;59064;45.294;11.816;2023-08-30T07:53:11;2.30;;;0.60;;
68938;SDS011;59064;45.294;11.816;2023-08-30T07:55:37;2.00;;;0.60;;
68938;SDS011;59064;45.294;11.816;2023-08-30T07:58:03;3.00;;;0.80;;
68938;SDS011;59064;45.294;11.816;2023-08-30T08:00:29;2.30;;;0.80;;
68938;SDS011;59064;45.294;11.816;2023-08-30T08:02:55;5.20;;;1.00;;
68938;SDS011;59064;45.294;11.816;2023-08-30T08:05:20;2.60;;;1.00;;
68938;SDS011;59064;45.294;11.816;2023-08-30T08:07:51;2.60;;;0.80;;
68938;SDS011;59064;45.294;11.816;2023-08-30T08:10:18;3.50;;;1.10;;
68938;SDS011;59064;45.294;11.816;2023-08-30T08:12:44;4.00;;;1.10;;
68938;SDS011;59064;45.294;11.816;2023-08-30T08:15:11;2.40;;;0.80;;
68938;SDS011;59064;45.294;11.816;2023-08-30T08:17:37;5.50;;;1.00;;
68938;SDS011;59064;45.294;11.816;2023-08-30T08:20:04;3.60;;;0.90;;
68938;SDS011;59064;45.294;11.816;2023-08-30T08:22:30;1.40;;;0.60;;
68938;SDS011;59064;45.294;11.816;2023-08-30T08:24:56;1.30;;;0.50;;
68938;SDS011;59064;45.294;11.816;2023-08-30T08:27:22;4.20;;;0.60;;
68938;SDS011;59064;45.294;11.816;2023-08-30T08:29:50;1.00;;;0.40;;
68938;SDS011;59064;45.294;11.816;2023-08-30T08:32:16;1.40;;;0.50;;
68938;SDS011;59064;45.294;11.816;2023-08-30T08:34:41;1.30;;;0.40;;
68938;SDS011;59064;45.294;11.816;2023-08-30T08:37:07;2.10;;;0.50;;
68938;SDS011;59064;45.294;11.816;2023-08-30T08:39:33;1.20;;;0.40;;
68938;SDS011;59064;45.294;11.816;2023-08-30T08:41:59;1.30;;;0.70;;
68938;SDS011;59064;45.294;11.816;2023-08-30T08:44:26;1.00;;;0.40;;
68938;SDS011;59064;45.294;11.816;2023-08-30T08:46:53;0.70;;;0.40;;
68938;SDS011;59064;45.294;11.816;2023-08-30T08:49:19;0.60;;;0.20;;
68938;SDS011;59064;45.294;11.816;2023-08-30T08:51:45;1.00;;;0.30;;
68938;SDS011;59064;45.294;11.816;2023-08-30T08:54:12;1.60;;;0.30;;
68938;SDS011;59064;45.294;11.816;2023-08-30T08:56:38;0.30;;;0.20;;
68938;SDS011;59064;45.294;11.816;2023-08-30T08:59:06;0.70;;;0.30;;
68938;SDS011;59064;45.294;11.816;2023-08-30T09:01:34;0.70;;;0.30;;
68938;SDS011;59064;45.294;11.816;2023-08-30T09:04:10;0.40;;;0.20;;
68938;SDS011;59064;45.294;11.816;2023-08-30T09:06:37;0.90;;;0.20;;
68938;SDS011;59064;45.294;11.816;2023-08-30T09:09:08;0.70;;;0.30;;
68938;SDS011;59064;45.294;11.816;2023-08-30T09:11:34;0.90;;;0.30;;
68938;SDS011;59064;45.294;11.816;2023-08-30T09:14:00;0.80;;;0.20;;
68938;SDS011;59064;45.294;11.816;2023-08-30T09:16:27;1.00;;;0.20;;
68938;SDS011;59064;45.294;11.816;2023-08-30T09:18:59;0.50;;;0.20;;
68938;SDS011;59064;45.294;11.816;2023-08-30T09:21:25;1.30;;;0.40;;
68938;SDS011;59064;45.294;11.816;2023-08-30T09:26:23;1.70;;;0.40;;
68938;SDS011;59064;45.294;11.816;2023-08-30T09:28:49;2.20;;;0.30;;
68938;SDS011;59064;45.294;11.816;2023-08-30T09:31:18;0.90;;;0.20;;
68938;SDS011;59064;45.294;11.816;2023-08-30T09:33:46;0.50;;;0.20;;
68938;SDS011;59064;45.294;11.816;2023-08-30T09:36:15;0.90;;;0.20;;
68938;SDS011;59064;45.294;11.816;2023-08-30T09:38:40;1.00;;;0.20;;
68938;SDS011;59064;45.294;11.816;2023-08-30T09:41:06;0.70;;;0.20;;
68938;SDS011;59064;45.294;11.816;2023-08-30T09:43:32;1.40;;;0.20;;
68938;SDS011;59064;45.294;11.816;2023-08-30T09:46:04;0.70;;;0.20;;
68938;SDS011;59064;45.294;11.816;2023-08-30T09:48:30;0.40;;;0.20;;
68938;SDS011;59064;45.294;11.816;2023-08-30T09:50:58;1.20;;;0.10;;
68938;SDS011;59064;45.294;11.816;2023-08-30T09:53:27;1.10;;;0.30;;
68938;SDS011;59064;45.294;11.816;2023-08-30T09:55:57;0.60;;;0.30;;
68938;SDS011;59064;45.294;11.816;2023-08-30T09:58:24;1.10;;;0.30;;
68938;SDS011;59064;45.294;11.816;2023-08-30T10:00:52;0.50;;;0.20;;
68938;SDS011;59064;45.294;11.816;2023-08-30T10:03:18;2.00;;;0.40;;
68938;SDS011;59064;45.294;11.816;2023-08-30T10:05:45;1.50;;;0.30;;
68938;SDS011;59064;45.294;11.816;2023-08-30T10:08:11;1.60;;;0.30;;
68938;SDS011;59064;45.294;11.816;2023-08-30T10:10:39;1.60;;;0.20;;
68938;SDS011;59064;45.294;11.816;2023-08-30T10:13:05;0.60;;;0.20;;
68938;SDS011;59064;45.294;11.816;2023-08-30T10:15:33;0.80;;;0.30;;
68938;SDS011;59064;45.294;11.816;2023-08-30T10:18:02;0.90;;;0.20;;
68938;SDS011;59064;45.294;11.816;2023-08-30T10:20:30;0.60;;;0.20;;
68938;SDS011;59064;45.294;11.816;2023-08-30T10:22:56;0.90;;;0.20;;
68938;SDS011;59064;45.294;11.816;2023-08-30T10:25:26;0.70;;;0.30;;
68938;SDS011;59064;45.294;11.816;2023-08-30T10:27:54;1.40;;;0.20;;
68938;SDS011;59064;45.294;11.816;2023-08-30T10:30:21;0.80;;;0.20;;
68938;SDS011;59064;45.294;11.816;2023-08-30T10:32:48;0.40;;;0.20;;
68938;SDS011;59064;45.294;11.816;2023-08-30T10:35:15;0.40;;;0.10;;
68938;SDS011;59064;45.294;11.816;2023-08-30T10:37:53;1.20;;;0.30;;
68938;SDS011;59064;45.294;11.816;2023-08-30T10:40:21;0.60;;;0.20;;
68938;SDS011;59064;45.294;11.816;2023-08-30T10:42:58;0.40;;;0.20;;
68938;SDS011;59064;45.294;11.816;2023-08-30T10:45:24;0.60;;;0.20;;
68938;SDS011;59064;45.294;11.816;2023-08-30T10:47:54;0.40;;;0.10;;
68938;SDS011;59064;45.294;11.816;2023-08-30T10:50:28;0.40;;;0.10;;
68938;SDS011;59064;45.294;11.816;2023-08-30T10:52:57;0.40;;;0.10;;
68938;SDS011;59064;45.294;11.816;2023-08-30T10:55:24;0.30;;;0.10;;
68938;SDS011;59064;45.294;11.816;2023-08-30T10:58:01;0.30;;;0.20;;
68938;SDS011;59064;45.294;11.816;2023-08-30T11:00:30;0.50;;;0.10;;
68938;SDS011;59064;45.294;11.816;2023-08-30T11:02:56;0.70;;;0.10;;
68938;SDS011;59064;45.294;11.816;2023-08-30T11:05:24;0.30;;;0.20;;
68938;SDS011;59064;45.294;11.816;2023-08-30T11:07:51;0.30;;;0.10;;
68938;SDS011;59064;45.294;11.816;2023-08-30T11:10:18;0.50;;;0.10;;
68938;SDS011;59064;45.294;11.816;2023-08-30T11:12:45;0.40;;;0.20;;
68938;SDS011;59064;45.294;11.816;2023-08-30T11:15:12;0.50;;;0.10;;
68938;SDS011;59064;45.294;11.816;2023-08-30T11:17:42;0.30;;;0.10;;
68938;SDS011;59064;45.294;11.816;2023-08-30T11:20:17;0.20;;;0.10;;
68938;SDS011;59064;45.294;11.816;2023-08-30T11:22:46;0.80;;;0.20;;
68938;SDS011;59064;45.294;11.816;2023-08-30T11:25:13;0.80;;;0.20;;
68938;SDS011;59064;45.294;11.816;2023-08-30T11:27:40;0.20;;;0.10;;
68938;SDS011;59064;45.294;11.816;2023-08-30T11:30:07;0.20;;;0.10;;
68938;SDS011;59064;45.294;11.816;2023-08-30T11:32:41;0.20;;;0.10;;
68938;SDS011;59064;45.294;11.816;2023-08-30T11:35:10;0.40;;;0.10;;
68938;SDS011;59064;45.294;11.816;2023-08-30T11:37:36;0.20;;;0.10;;
68938;SDS011;59064;45.294;11.816;2023-08-30T11:40:03;0.40;;;0.10;;
68938;SDS011;59064;45.294;11.816;2023-08-30T11:42:31;0.40;;;0.20;;
68938;SDS011;59064;45.294;11.816;2023-08-30T11:45:00;0.90;;;0.20;;
68938;SDS011;59064;45.294;11.816;2023-08-30T11:47:27;0.60;;;0.20;;
68938;SDS011;59064;45.294;11.816;2023-08-30T11:49:57;0.30;;;0.10;;
68938;SDS011;59064;45.294;11.816;2023-08-30T11:52:25;0.40;;;0.10;;
68938;SDS011;59064;45.294;11.816;2023-08-30T11:54:51;0.90;;;0.10;;
68938;SDS011;59064;45.294;11.816;2023-08-30T11:57:18;0.70;;;0.10;;
68938;SDS011;59064;45.294;11.816;2023-08-30T11:59:44;0.80;;;0.20;;
68938;SDS011;59064;45.294;11.816;2023-08-30T12:02:13;0.60;;;0.30;;
68938;SDS011;59064;45.294;11.816;2023-08-30T12:04:42;0.80;;;0.20;;
68938;SDS011;59064;45.294;11.816;2023-08-30T12:07:09;0.70;;;0.10;;
68938;SDS011;59064;45.294;11.816;2023-08-30T12:09:36;1.20;;;0.10;;
68938;SDS011;59064;45.294;11.816;2023-08-30T12:12:11;0.60;;;0.20;;
68938;SDS011;59064;45.294;11.816;2023-08-30T12:14:37;0.40;;;0.20;;
68938;SDS011;59064;45.294;11.816;2023-08-30T12:17:04;1.10;;;0.20;;
68938;SDS011;59064;45.294;11.816;2023-08-30T12:19:31;0.70;;;0.20;;
68938;SDS011;59064;45.294;11.816;2023-08-30T12:22:03;1.20;;;0.30;;
68938;SDS011;59064;45.294;11.816;2023-08-30T12:24:46;3.60;;;0.40;;
68938;SDS011;59064;45.294;11.816;2023-08-30T12:27:12;0.70;;;0.20;;
68938;SDS011;59064;45.294;11.816;2023-08-30T12:29:39;0.70;;;0.30;;
68938;SDS011;59064;45.294;11.816;2023-08-30T12:32:06;2.30;;;0.40;;
68938;SDS011;59064;45.294;11.816;2023-08-30T12:34:33;0.80;;;0.30;;
68938;SDS011;59064;45.294;11.816;2023-08-30T12:36:58;1.00;;;0.30;;
68938;SDS011;59064;45.294;11.816;2023-08-30T12:39:24;2.00;;;0.40;;
68938;SDS011;59064;45.294;11.816;2023-08-30T12:41:50;1.70;;;0.40;;
68938;SDS011;59064;45.294;11.816;2023-08-30T12:44:15;1.20;;;0.40;;
68938;SDS011;59064;45.294;11.816;2023-08-30T12:46:41;1.40;;;0.20;;
68938;SDS011;59064;45.294;11.816;2023-08-30T12:49:06;0.80;;;0.10;;
68938;SDS011;59064;45.294;11.816;2023-08-30T12:51:32;0.30;;;0.20;;
68938;SDS011;59064;45.294;11.816;2023-08-30T12:53:58;0.30;;;0.10;;
68938;SDS011;59064;45.294;11.816;2023-08-30T12:56:23;0.30;;;0.10;;
68938;SDS011;59064;45.294;11.816;2023-08-30T12:58:49;1.10;;;0.20;;
68938;SDS011;59064;45.294;11.816;2023-08-30T13:01:16;0.60;;;0.20;;
68938;SDS011;59064;45.294;11.816;2023-08-30T13:03:42;0.70;;;0.10;;
68938;SDS011;59064;45.294;11.816;2023-08-30T13:06:07;1.10;;;0.20;;
68938;SDS011;59064;45.294;11.816;2023-08-30T13:08:33;0.30;;;0.10;;
68938;SDS011;59064;45.294;11.816;2023-08-30T13:10:59;0.40;;;0.20;;
68938;SDS011;59064;45.294;11.816;2023-08-30T13:13:26;0.40;;;0.20;;
68938;SDS011;59064;45.294;11.816;2023-08-30T13:15:51;1.10;;;0.30;;
68938;SDS011;59064;45.294;11.816;2023-08-30T13:18:17;1.40;;;0.40;;
68938;SDS011;59064;45.294;11.816;2023-08-30T13:20:43;1.30;;;0.30;;
68938;SDS011;59064;45.294;11.816;2023-08-30T13:23:10;1.50;;;0.50;;
68938;SDS011;59064;45.294;11.816;2023-08-30T13:25:41;1.00;;;0.30;;
68938;SDS011;59064;45.294;11.816;2023-08-30T13:28:07;1.00;;;0.30;;
68938;SDS011;59064;45.294;11.816;2023-08-30T13:30:33;0.70;;;0.20;;
68938;SDS011;59064;45.294;11.816;2023-08-30T13:32:59;1.70;;;0.20;;
68938;SDS011;59064;45.294;11.816;2023-08-30T13:35:25;0.40;;;0.10;;
68938;SDS011;59064;45.294;11.816;2023-08-30T13:37:50;0.40;;;0.20;;
68938;SDS011;59064;45.294;11.816;2023-08-30T13:40:16;0.40;;;0.20;;
68938;SDS011;59064;45.294;11.816;2023-08-30T13:42:42;0.50;;;0.20;;
68938;SDS011;59064;45.294;11.816;2023-08-30T13:45:08;0.70;;;0.20;;
68938;SDS011;59064;45.294;11.816;2023-08-30T13:47:38;0.60;;;0.20;;
68938;SDS011;59064;45.294;11.816;2023-08-30T13:50:04;0.40;;;0.20;;
68938;SDS011;59064;45.294;11.816;2023-08-30T13:52:30;1.10;;;0.20;;
68938;SDS011;59064;45.294;11.816;2023-08-30T13:54:56;0.50;;;0.20;;
68938;SDS011;59064;45.294;11.816;2023-08-30T13:57:22;0.90;;;0.20;;
68938;SDS011;59064;45.294;11.816;2023-08-30T13:59:47;0.90;;;0.20;;
68938;SDS011;59064;45.294;11.816;2023-08-30T14:02:13;2.10;;;0.30;;
68938;SDS011;59064;45.294;11.816;2023-08-30T14:04:39;0.90;;;0.10;;
68938;SDS011;59064;45.294;11.816;2023-08-30T14:07:04;0.50;;;0.20;;
68938;SDS011;59064;45.294;11.816;2023-08-30T14:09:30;0.60;;;0.20;;
68938;SDS011;59064;45.294;11.816;2023-08-30T14:11:56;0.60;;;0.20;;
68938;SDS011;59064;45.294;11.816;2023-08-30T14:14:21;0.50;;;0.20;;
68938;SDS011;59064;45.294;11.816;2023-08-30T14:16:47;0.30;;;0.10;;
68938;SDS011;59064;45.294;11.816;2023-08-30T14:19:15;0.90;;;0.20;;
68938;SDS011;59064;45.294;11.816;2023-08-30T14:21:41;0.50;;;0.20;;
68938;SDS011;59064;45.294;11.816;2023-08-30T14:24:07;0.40;;;0.20;;
68938;SDS011;59064;45.294;11.816;2023-08-30T14:26:32;0.30;;;0.20;;
68938;SDS011;59064;45.294;11.816;2023-08-30T14:28:58;1.70;;;0.50;;
68938;SDS011;59064;45.294;11.816;2023-08-30T14:31:23;0.60;;;0.20;;
68938;SDS011;59064;45.294;11.816;2023-08-30T14:33:54;0.20;;;0.10;;
68938;SDS011;59064;45.294;11.816;2023-08-30T14:36:22;1.20;;;0.30;;
68938;SDS011;59064;45.294;11.816;2023-08-30T14:38:48;1.20;;;0.30;;
68938;SDS011;59064;45.294;11.816;2023-08-30T14:41:14;1.30;;;0.20;;